Time;durP1;ratioP1;P1;durP2;ratioP2;P2;SDS_P1;SDS_P2;PMS_P1;PMS_P2;Temp;Humidity;BMP_temperature;BMP_pressure;BME280_temperature;BME280_humidity;BME280_pressure;Samples;Min_cycle;Max_cycle;Signal;HPM_P1;HPM_P2
2023/03/26 00:01:35;;;;;;;27.10;8.18;;;;;;;7.42;100.00;100536.75;5002676;28;20112;-78
2023/03/26 00:04:03;;;;;;;35.25;10.68;;;;;;;7.42;100.00;100543.81;5020549;28;20120;-78
2023/03/26 00:06:36;;;;;;;32.22;8.52;;;;;;;7.41;100.00;100544.78;5021426;28;20450;-78
2023/03/26 00:09:04;;;;;;;37.85;10.07;;;;;;;7.41;100.00;100544.78;5023007;28;20072;-77
2023/03/26 00:11:30;;;;;;;25.63;8.60;;;;;;;7.37;100.00;100541.41;5019587;28;20419;-77
2023/03/26 00:13:57;;;;;;;31.00;9.75;;;;;;;7.37;100.00;100544.91;5024787;28;20041;-79
2023/03/26 00:16:26;;;;;;;35.50;9.35;;;;;;;7.35;100.00;100538.81;5025435;28;20046;-77
2023/03/26 00:18:53;;;;;;;33.20;9.75;;;;;;;7.31;100.00;100541.69;5023428;28;20045;-77
2023/03/26 00:21:31;;;;;;;40.55;11.68;;;;;;;7.31;100.00;100541.69;5018937;28;20410;-77
2023/03/26 00:23:59;;;;;;;36.85;10.43;;;;;;;7.29;100.00;100541.75;5001271;28;20037;-76
2023/03/26 00:26:28;;;;;;;34.58;10.30;;;;;;;7.26;100.00;100541.91;5021341;28;20115;-76
2023/03/26 00:28:54;;;;;;;44.40;10.68;;;;;;;7.23;100.00;100528.78;5007225;28;20556;-76
2023/03/26 00:31:21;;;;;;;27.15;8.40;;;;;;;7.23;100.00;100528.78;5020710;28;20408;-77
2023/03/26 00:33:47;;;;;;;39.90;8.52;;;;;;;7.24;100.00;100513.72;5007067;28;20555;-77
2023/03/26 00:36:16;;;;;;;30.20;8.43;;;;;;;7.25;100.00;100508.34;4985716;28;20129;-77
2023/03/26 00:38:43;;;;;;;32.63;8.65;;;;;;;7.26;100.00;100506.53;4986365;28;20033;-77
2023/03/26 00:41:25;;;;;;;40.35;8.68;;;;;;;7.22;100.00;100513.78;4991362;28;20133;-77
2023/03/26 00:43:56;;;;;;;37.67;6.68;;;;;;;7.21;100.00;100506.72;5018434;28;20463;-77
2023/03/26 00:46:28;;;;;;;41.35;8.27;;;;;;;7.18;100.00;100504.25;5014737;28;20072;-77
2023/03/26 00:48:58;;;;;;;39.33;7.57;;;;;;;7.14;100.00;100502.66;5001677;28;20079;-77
2023/03/26 00:51:26;;;;;;;43.13;6.93;;;;;;;7.15;100.00;100504.38;5021142;28;20036;-77
2023/03/26 00:53:52;;;;;;;44.42;8.38;;;;;;;7.15;100.00;100499.06;5017422;28;20284;-77
2023/03/26 00:56:19;;;;;;;53.53;8.20;;;;;;;7.12;100.00;100493.88;5008169;28;20388;-77
2023/03/26 00:58:46;;;;;;;49.63;8.05;;;;;;;7.13;100.00;100485.00;5023963;28;20038;-78
2023/03/26 01:01:15;;;;;;;51.40;8.35;;;;;;;7.19;100.00;100487.34;4993182;28;20056;-78
2023/03/26 01:03:44;;;;;;;65.95;8.93;;;;;;;7.24;100.00;100482.69;5003372;28;20065;-78
2023/03/26 01:06:16;;;;;;;68.80;10.57;;;;;;;7.30;100.00;100487.72;5000177;28;20399;-78
2023/03/26 01:08:51;;;;;;;61.65;9.13;;;;;;;7.35;100.00;100492.81;5019639;28;20091;-78
2023/03/26 01:11:36;;;;;;;62.47;9.77;;;;;;;7.34;100.00;100484.00;5007345;28;20099;-77
2023/03/26 01:14:08;;;;;;;68.68;11.00;;;;;;;7.34;100.00;100478.69;5021249;28;20037;-78
2023/03/26 01:16:53;;;;;;;61.97;9.60;;;;;;;7.33;100.00;100466.34;5022981;28;20029;-78
2023/03/26 01:20:12;;;;;;;79.45;10.50;;;;;;;7.28;100.00;100478.97;5002621;28;20033;-77
2023/03/26 01:22:41;;;;;;;61.13;8.50;;;;;;;7.28;100.00;100457.72;5023650;28;20099;-78
2023/03/26 01:25:08;;;;;;;76.35;9.68;;;;;;;7.25;100.00;100452.56;5014293;28;20033;-78
2023/03/26 01:27:39;;;;;;;62.38;8.70;;;;;;;7.22;100.00;100451.88;4995431;28;20038;-77
2023/03/26 01:30:17;;;;;;;60.33;10.25;;;;;;;7.14;100.00;100452.22;5011971;28;20230;-77
2023/03/26 01:33:05;;;;;;;73.03;10.02;;;;;;;7.03;100.00;100447.41;5024972;28;20033;-78
2023/03/26 01:36:10;;;;;;;65.65;9.80;;;;;;;6.90;100.00;100444.47;5011100;28;20041;-77
2023/03/26 01:38:48;;;;;;;61.45;9.27;;;;;;;6.81;100.00;100442.25;4996319;28;20052;-77
2023/03/26 01:41:23;;;;;;;81.55;10.20;;;;;;;6.75;100.00;100438.09;5012620;28;20037;-77
2023/03/26 01:44:02;;;;;;;80.53;10.63;;;;;;;6.70;100.00;100434.78;5022782;28;20091;-77
2023/03/26 01:46:33;;;;;;;80.63;12.93;;;;;;;6.65;100.00;100427.97;5027153;28;20018;-77
2023/03/26 01:48:59;;;;;;;62.00;12.00;;;;;;;6.63;100.00;100432.47;5010168;28;20029;-78
2023/03/26 01:51:28;;;;;;;65.95;10.85;;;;;;;6.63;100.00;100428.03;5008826;28;20037;-77
2023/03/26 01:53:55;;;;;;;72.65;11.75;;;;;;;6.63;100.00;100427.19;5012727;28;20033;-77
2023/03/26 01:56:34;;;;;;;62.72;10.18;;;;;;;6.66;100.00;100427.03;5020771;28;20029;-77
2023/03/26 01:59:19;;;;;;;76.13;11.70;;;;;;;6.60;100.00;100415.78;5026302;28;20038;-77
2023/03/26 02:01:54;;;;;;;96.82;12.52;;;;;;;6.60;100.00;100423.72;5022838;28;20029;-78
2023/03/26 02:04:43;;;;;;;80.85;11.40;;;;;;;6.65;100.00;100414.69;5004793;28;20049;-77
2023/03/26 02:07:25;;;;;;;114.25;14.52;;;;;;;6.78;100.00;100421.16;5026757;28;20060;-77
2023/03/26 02:09:56;;;;;;;98.10;13.48;;;;;;;6.91;100.00;100411.69;5020048;28;20702;-77
2023/03/26 02:12:24;;;;;;;106.05;13.95;;;;;;;7.04;100.00;100397.84;4989849;28;20044;-76
2023/03/26 02:14:52;;;;;;;103.22;12.93;;;;;;;7.12;100.00;100393.91;4989103;28;20081;-76
2023/03/26 02:17:23;;;;;;;101.32;12.77;;;;;;;7.24;100.00;100403.06;5025185;28;20029;-77
2023/03/26 02:19:50;;;;;;;114.05;12.40;;;;;;;7.33;100.00;100391.97;4991119;28;20033;-78
2023/03/26 02:22:17;;;;;;;110.80;13.15;;;;;;;7.40;100.00;100403.19;5020260;28;20041;-78
2023/03/26 02:24:44;;;;;;;96.18;12.68;;;;;;;7.44;100.00;100386.16;5007955;28;20577;-78
2023/03/26 02:27:12;;;;;;;112.10;14.68;;;;;;;7.49;100.00;100383.25;4988728;28;20612;-78
2023/03/26 02:29:41;;;;;;;123.15;15.60;;;;;;;7.51;100.00;100379.59;5009676;28;20033;-78
2023/03/26 02:32:13;;;;;;;114.65;14.20;;;;;;;7.56;100.00;100379.34;5017635;28;20084;-78
2023/03/26 02:34:40;;;;;;;122.25;14.52;;;;;;;7.63;100.00;100387.88;5010341;28;20029;-76
2023/03/26 02:37:07;;;;;;;101.72;12.82;;;;;;;7.67;100.00;100371.69;5005614;28;20045;-76
2023/03/26 02:39:35;;;;;;;115.15;14.07;;;;;;;7.75;100.00;100371.31;4988725;28;20503;-76
2023/03/26 02:42:09;;;;;;;121.43;15.85;;;;;;;7.84;100.00;100364.66;5013454;28;20510;-78
2023/03/26 02:44:43;;;;;;;114.72;12.93;;;;;;;7.87;100.00;100367.19;4996081;28;20040;-77
2023/03/26 02:47:18;;;;;;;126.70;16.85;;;;;;;7.93;100.00;100365.03;5005155;28;20064;-77
2023/03/26 02:50:04;;;;;;;117.82;18.27;;;;;;;8.01;100.00;100366.44;5020183;28;20052;-78
2023/03/26 02:52:50;;;;;;;101.88;14.73;;;;;;;7.99;100.00;100366.53;5016220;28;20061;-77
2023/03/26 02:55:17;;;;;;;133.55;18.35;;;;;;;8.04;100.00;100376.94;4986709;28;20414;-77
2023/03/26 02:57:46;;;;;;;117.63;18.30;;;;;;;8.08;100.00;100363.38;5006159;28;20124;-77
2023/03/26 03:00:12;;;;;;;118.70;15.38;;;;;;;8.10;100.00;100366.81;4991435;28;20508;-77
2023/03/26 03:02:46;;;;;;;115.25;16.67;;;;;;;8.10;100.00;100363.31;4990258;28;20051;-78
2023/03/26 03:05:32;;;;;;;110.95;16.63;;;;;;;8.08;100.00;100355.41;5002925;28;20133;-77
2023/03/26 03:08:22;;;;;;;120.30;19.90;;;;;;;8.10;100.00;100350.00;5001894;28;20073;-78
2023/03/26 03:11:06;;;;;;;106.38;18.48;;;;;;;8.12;100.00;100358.75;5003084;28;20149;-78
2023/03/26 03:13:46;;;;;;;111.05;19.08;;;;;;;8.09;100.00;100343.84;4999293;28;20084;-77
2023/03/26 03:16:17;;;;;;;117.28;19.25;;;;;;;8.09;100.00;100349.16;4988322;28;20030;-76
2023/03/26 03:18:43;;;;;;;122.93;21.58;;;;;;;8.07;100.00;100351.03;5000227;28;20103;-76
2023/03/26 03:21:10;;;;;;;113.43;20.75;;;;;;;8.05;100.00;100342.28;4982967;28;20129;-76
2023/03/26 03:23:36;;;;;;;122.22;20.40;;;;;;;8.02;100.00;100342.44;5005822;28;20415;-77
2023/03/26 03:26:15;;;;;;;107.80;19.55;;;;;;;8.06;100.00;100336.03;5007634;28;20459;-77
2023/03/26 03:28:44;;;;;;;131.00;25.55;;;;;;;8.01;100.00;100326.56;5003261;28;20513;-76
2023/03/26 03:31:14;;;;;;;135.60;23.52;;;;;;;8.01;100.00;100330.09;5002073;28;20034;-77
2023/03/26 03:33:41;;;;;;;104.93;20.55;;;;;;;8.01;100.00;100330.09;4984988;28;20057;-76
2023/03/26 03:36:12;;;;;;;128.50;21.27;;;;;;;8.00;100.00;100331.03;4990918;28;20036;-77
2023/03/26 03:38:40;;;;;;;111.13;19.85;;;;;;;7.97;100.00;100321.41;5003710;28;20041;-76
2023/03/26 03:41:25;;;;;;;111.32;19.10;;;;;;;7.97;100.00;100321.41;5004469;28;20538;-78
2023/03/26 03:43:52;;;;;;;106.00;18.85;;;;;;;7.96;100.00;100318.84;5003891;28;20021;-77
2023/03/26 03:46:24;;;;;;;116.63;20.73;;;;;;;7.96;100.00;100318.84;5004187;28;20403;-78
2023/03/26 03:48:51;;;;;;;94.78;19.27;;;;;;;7.95;100.00;100322.44;5002856;28;20137;-77
2023/03/26 03:51:25;;;;;;;95.40;18.15;;;;;;;7.93;100.00;100311.88;4987660;28;20073;-77
2023/03/26 03:54:11;;;;;;;97.97;18.75;;;;;;;7.94;100.00;100320.75;4989794;28;20034;-78
2023/03/26 03:57:00;;;;;;;99.00;20.02;;;;;;;7.94;100.00;100318.94;5004207;28;20579;-77
2023/03/26 03:59:51;;;;;;;96.20;18.33;;;;;;;7.92;100.00;100310.19;5016722;28;20045;-78
2023/03/26 04:02:33;;;;;;;101.25;19.67;;;;;;;7.95;100.00;100319.78;5002006;28;20041;-78
2023/03/26 04:05:03;;;;;;;111.68;19.63;;;;;;;7.93;100.00;100301.25;5000706;28;20129;-78
2023/03/26 04:07:31;;;;;;;83.75;17.92;;;;;;;7.95;100.00;100306.50;5003389;28;20430;-78
2023/03/26 04:10:08;;;;;;;92.80;17.80;;;;;;;7.95;100.00;100299.38;4998973;28;20056;-79
2023/03/26 04:12:52;;;;;;;96.97;16.88;;;;;;;7.99;100.00;100293.91;5004576;28;21432;-78
2023/03/26 04:15:29;;;;;;;87.22;16.60;;;;;;;7.98;100.00;100298.38;4983575;28;20037;-78
2023/03/26 04:17:55;;;;;;;84.57;16.23;;;;;;;7.97;100.00;100288.66;4987273;28;20081;-78
2023/03/26 04:20:22;;;;;;;88.40;18.27;;;;;;;7.94;100.00;100295.00;4986010;28;20112;-87
2023/03/26 04:22:49;;;;;;;109.30;19.85;;;;;;;7.93;100.00;100279.13;5003787;28;20038;-86
2023/03/26 04:25:18;;;;;;;100.97;17.45;;;;;;;7.91;100.00;100279.22;5001642;28;20136;-87
2023/03/26 04:27:54;;;;;;;99.53;18.02;;;;;;;7.90;100.00;100273.97;4999188;28;20475;-78
2023/03/26 04:30:41;;;;;;;82.85;16.00;;;;;;;7.87;100.00;100271.50;5000280;28;20048;-78
2023/03/26 04:33:34;;;;;;;73.82;16.17;;;;;;;7.85;100.00;100260.09;4995747;28;20511;-78
2023/03/26 04:36:01;;;;;;;79.82;14.93;;;;;;;7.82;100.00;100255.78;4991922;28;20381;-78
2023/03/26 04:38:32;;;;;;;85.93;15.48;;;;;;;7.81;100.00;100256.75;5000878;28;20060;-78
2023/03/26 04:41:02;;;;;;;83.43;17.35;;;;;;;7.78;100.00;100246.28;5006227;28;20030;-78
2023/03/26 04:43:55;;;;;;;88.97;16.67;;;;;;;7.73;100.00;100251.84;5001309;28;20053;-77
2023/03/26 04:46:42;;;;;;;92.18;19.23;;;;;;;7.67;100.00;100241.53;4988547;28;20129;-77
2023/03/26 04:49:20;;;;;;;92.60;16.83;;;;;;;7.61;100.00;100241.84;4988119;28;20088;-76
2023/03/26 04:51:46;;;;;;;88.28;16.55;;;;;;;7.57;100.00;100233.19;4990725;28;20038;-76
2023/03/26 04:54:33;;;;;;;91.35;17.25;;;;;;;7.54;100.00;100229.81;4985219;28;20072;-76
2023/03/26 04:57:12;;;;;;;116.85;20.30;;;;;;;7.50;100.00;100226.47;5004219;28;20136;-77
2023/03/26 05:00:15;;;;;;;79.38;16.10;;;;;;;7.45;100.00;100220.53;5009494;28;20782;-76
2023/03/26 05:02:42;;;;;;;90.00;18.63;;;;;;;7.42;100.00;100225.16;4996824;28;20129;-76
2023/03/26 05:05:09;;;;;;;105.05;19.95;;;;;;;7.40;100.00;100211.09;5022546;28;20503;-77
2023/03/26 05:07:36;;;;;;;98.13;18.80;;;;;;;7.37;100.00;100212.13;4999510;28;20029;-77
2023/03/26 05:10:04;;;;;;;99.50;18.80;;;;;;;7.37;100.00;100214.78;4999761;28;20045;-75
2023/03/26 05:12:36;;;;;;;83.82;18.10;;;;;;;7.38;100.00;100212.06;5005976;28;20038;-78
2023/03/26 05:15:08;;;;;;;92.80;18.15;;;;;;;7.37;100.00;100207.66;5007429;28;20053;-78
2023/03/26 05:17:57;;;;;;;110.35;18.33;;;;;;;7.33;100.00;100211.44;5001266;28;20053;-78
2023/03/26 05:20:42;;;;;;;92.30;18.10;;;;;;;7.32;100.00;100204.38;5008348;28;20113;-78
2023/03/26 05:23:09;;;;;;;89.20;18.67;;;;;;;7.32;100.00;100204.38;4983606;28;20041;-79
2023/03/26 05:25:40;;;;;;;98.85;18.42;;;;;;;7.34;100.00;100204.31;5001435;28;20058;-77
2023/03/26 05:28:14;;;;;;;89.60;18.40;;;;;;;7.34;100.00;100197.22;5001458;28;20034;-78
2023/03/26 05:31:20;;;;;;;90.88;18.15;;;;;;;7.35;100.00;100196.28;4956931;28;20050;-77
2023/03/26 05:33:50;;;;;;;113.38;21.20;;;;;;;7.36;100.00;100190.03;4952819;28;20035;-77
2023/03/26 05:36:17;;;;;;;95.38;18.23;;;;;;;7.37;100.00;100177.59;4959400;28;20112;-77
2023/03/26 05:38:48;;;;;;;91.47;18.80;;;;;;;7.37;100.00;100178.47;4988605;28;20546;-77
2023/03/26 05:41:35;;;;;;;90.22;20.88;;;;;;;7.40;100.00;100179.22;5007486;28;20040;-77
2023/03/26 05:44:01;;;;;;;100.70;19.33;;;;;;;7.45;100.00;100182.50;4976593;28;20041;-78
2023/03/26 05:46:29;;;;;;;102.43;19.52;;;;;;;7.45;100.00;100177.19;5006695;28;20032;-78
2023/03/26 05:48:56;;;;;;;96.75;19.65;;;;;;;7.46;100.00;100178.94;4994061;28;20116;-78
2023/03/26 05:51:23;;;;;;;103.93;19.17;;;;;;;7.45;100.00;100177.19;5000178;28;20208;-78
2023/03/26 05:53:59;;;;;;;95.47;20.55;;;;;;;7.46;100.00;100171.81;4991917;28;20038;-78
2023/03/26 05:56:51;;;;;;;80.47;19.55;;;;;;;7.46;100.00;100168.31;4995435;28;20438;-77
2023/03/26 05:59:36;;;;;;;105.55;19.95;;;;;;;7.45;100.00;100155.94;5008723;28;20061;-79
2023/03/26 06:02:21;;;;;;;95.47;19.88;;;;;;;7.47;100.00;100159.38;5005378;28;20514;-78
2023/03/26 06:05:08;;;;;;;108.05;19.17;;;;;;;7.44;100.00;100156.91;5000744;28;20050;-79
2023/03/26 06:08:04;;;;;;;99.40;18.15;;;;;;;7.37;100.00;100149.25;4997079;28;20536;-78
2023/03/26 06:10:39;;;;;;;97.13;19.95;;;;;;;7.35;100.00;100152.94;5008739;28;20064;-78
2023/03/26 06:13:05;;;;;;;103.68;21.27;;;;;;;7.34;100.00;100148.56;5000417;28;20080;-78
2023/03/26 06:15:34;;;;;;;109.30;21.10;;;;;;;7.35;100.00;100151.13;5021097;28;20042;-78
2023/03/26 06:18:07;;;;;;;89.72;20.13;;;;;;;7.38;100.00;100145.66;4990237;28;20037;-78
2023/03/26 06:20:52;;;;;;;97.85;18.58;;;;;;;7.41;100.00;100141.13;5008486;28;20044;-79
2023/03/26 06:23:32;;;;;;;109.63;20.00;;;;;;;7.44;100.00;100143.63;4989814;28;20117;-78
2023/03/26 06:26:14;;;;;;;110.97;22.60;;;;;;;7.45;100.00;100134.72;4977333;28;20121;-79
2023/03/26 06:29:00;;;;;;;100.57;21.95;;;;;;;7.46;100.00;100141.75;4981576;28;20073;-78
2023/03/26 06:31:53;;;;;;;86.43;18.98;;;;;;;7.52;100.00;100139.59;5013107;28;20399;-78
2023/03/26 06:34:33;;;;;;;100.13;19.90;;;;;;;7.50;100.00;100137.97;4992402;28;20046;-78
2023/03/26 06:36:59;;;;;;;112.70;22.55;;;;;;;7.47;100.00;100136.31;5000291;28;20475;-79
2023/03/26 06:39:26;;;;;;;112.93;20.45;;;;;;;7.45;100.00;100145.31;4989779;28;20034;-78
2023/03/26 06:42:06;;;;;;;100.22;21.02;;;;;;;7.42;100.00;100142.81;5003348;28;20042;-78
2023/03/26 06:44:50;;;;;;;115.82;21.77;;;;;;;7.45;100.00;100134.72;5009650;28;20057;-80
2023/03/26 06:47:32;;;;;;;113.45;22.58;;;;;;;7.47;100.00;100138.13;5008018;28;20133;-80
2023/03/26 06:50:31;;;;;;;108.10;21.92;;;;;;;7.50;100.00;100140.63;5003854;28;20038;-78
2023/03/26 06:53:03;;;;;;;110.80;22.75;;;;;;;7.47;100.00;100146.09;5008248;28;20177;-80
2023/03/26 06:55:35;;;;;;;96.10;23.95;;;;;;;7.44;100.00;100138.31;5008455;28;20045;-80
2023/03/26 06:58:20;;;;;;;113.78;23.25;;;;;;;7.43;100.00;100136.59;4971905;28;20356;-80
2023/03/26 07:01:07;;;;;;;117.43;22.10;;;;;;;7.41;100.00;100138.47;4974195;28;20511;-80
2023/03/26 07:03:52;;;;;;;122.25;22.65;;;;;;;7.40;100.00;100131.44;5016698;28;20068;-80
2023/03/26 07:06:38;;;;;;;132.70;25.10;;;;;;;7.42;100.00;100130.44;4967907;28;20042;-79
2023/03/26 07:09:25;;;;;;;138.07;26.00;;;;;;;7.51;100.00;100137.03;4998773;28;20133;-79
2023/03/26 07:12:09;;;;;;;127.13;24.63;;;;;;;7.55;100.00;100133.28;4998098;28;20125;-79
2023/03/26 07:14:54;;;;;;;145.70;24.77;;;;;;;7.57;100.00;100139.38;4980299;28;20121;-79
2023/03/26 07:17:49;;;;;;;137.80;25.50;;;;;;;7.65;100.00;100139.78;5003737;28;20030;-79
2023/03/26 07:20:30;;;;;;;148.73;25.23;;;;;;;7.65;100.00;100134.47;5000687;28;20038;-79
2023/03/26 07:22:56;;;;;;;135.90;26.33;;;;;;;7.70;100.00;100129.78;4984401;28;20483;-79
2023/03/26 07:25:43;;;;;;;138.30;26.52;;;;;;;7.75;100.00;100143.69;4980068;28;20030;-79
2023/03/26 07:28:25;;;;;;;125.10;27.02;;;;;;;7.79;100.00;100135.53;4986699;28;20057;-80
2023/03/26 07:31:10;;;;;;;;;;;;;;;7.86;100.00;100139.56;4986131;28;20410;-81
2023/03/26 07:33:57;;;;;;;152.20;27.17;;;;;;;7.86;100.00;100128.94;5002346;28;19914;-80
2023/03/26 07:36:56;;;;;;;138.00;26.48;;;;;;;7.92;100.00;100136.56;4998629;28;20026;-80
2023/03/26 07:39:53;;;;;;;139.45;28.40;;;;;;;7.99;100.00;100132.63;4984448;28;20177;-80
2023/03/26 07:43:11;;;;;;;138.52;29.55;;;;;;;8.02;100.00;100129.78;4966518;28;20034;-81
2023/03/26 07:45:57;;;;;;;135.82;25.08;;;;;;;7.99;100.00;100129.97;4956652;28;20056;-81
2023/03/26 07:48:50;;;;;;;127.53;26.77;;;;;;;8.05;100.00;100129.63;4986561;28;20113;-79
2023/03/26 07:51:41;;;;;;;115.07;26.50;;;;;;;8.06;100.00;100134.00;4985632;28;20120;-80
2023/03/26 07:54:47;;;;;;;106.75;25.75;;;;;;;8.15;100.00;100122.84;4987585;28;20042;-81
2023/03/26 07:57:56;;;;;;;105.25;25.33;;;;;;;8.07;100.00;100122.44;4983699;28;20537;-82
2023/03/26 08:00:47;;;;;;;93.80;24.80;;;;;;;8.05;100.00;100121.66;4986724;28;20034;-81
2023/03/26 08:03:44;;;;;;;96.97;27.05;;;;;;;8.08;100.00;100118.81;4985145;28;20423;-81
2023/03/26 08:06:38;;;;;;;91.47;23.98;;;;;;;8.17;100.00;100117.44;5003662;28;20053;-80
2023/03/26 08:09:33;;;;;;;89.78;24.45;;;;;;;8.14;100.00;100123.78;5006799;28;20049;-82
2023/03/26 08:12:59;;;;;;;90.03;25.23;;;;;;;8.09;100.00;100120.53;5006525;28;20041;-81
2023/03/26 08:15:40;;;;;;;66.28;19.77;;;;;;;8.04;100.00;100109.28;5021053;28;20472;-81
2023/03/26 08:18:44;;;;;;;66.80;21.10;;;;;;;8.04;100.00;100117.28;5003358;28;20254;-83
2023/03/26 08:21:19;;;;;;;62.72;21.92;;;;;;;8.00;100.00;100110.41;4983048;28;20054;-82
2023/03/26 08:24:04;;;;;;;64.00;21.70;;;;;;;7.88;100.00;100117.28;5007415;28;20033;-82
2023/03/26 08:26:42;;;;;;;74.03;24.55;;;;;;;7.84;100.00;100122.84;5010553;28;20050;-82
2023/03/26 08:29:26;;;;;;;69.03;24.58;;;;;;;7.80;100.00;100121.31;5002989;28;20173;-81
2023/03/26 08:31:52;;;;;;;70.43;26.65;;;;;;;7.67;100.00;100119.31;5011906;28;20033;-81
2023/03/26 08:34:19;;;;;;;68.75;26.55;;;;;;;7.53;100.00;100116.53;5009920;28;20053;-83
2023/03/26 08:36:45;;;;;;;82.07;26.05;;;;;;;7.47;100.00;100112.44;5005670;28;20352;-80
2023/03/26 08:39:13;;;;;;;89.63;27.52;;;;;;;7.43;100.00;100116.19;5008021;28;20522;-82
2023/03/26 08:42:17;;;;;;;87.55;26.38;;;;;;;7.38;100.00;100119.13;5003935;28;20049;-83
2023/03/26 08:45:08;;;;;;;103.18;24.13;;;;;;;7.30;100.00;100116.00;5009858;28;20022;-81
2023/03/26 08:47:48;;;;;;;;;;;;;;;7.29;100.00;100116.94;5010926;28;20514;-82
2023/03/26 08:50:33;;;;;;;75.50;21.83;;;;;;;7.29;100.00;100124.06;5020926;28;19944;-83
2023/03/26 08:53:24;;;;;;;86.72;21.55;;;;;;;7.28;100.00;100123.19;5012094;28;20030;-84
2023/03/26 08:56:11;;;;;;;71.30;20.63;;;;;;;7.29;100.00;100118.75;5022327;28;20136;-84
2023/03/26 08:59:32;;;;;;;70.13;21.10;;;;;;;7.33;100.00;100126.47;4992271;28;20061;-82
2023/03/26 09:02:18;;;;;;;58.50;18.50;;;;;;;7.24;100.00;100121.63;5009068;28;20040;-86
2023/03/26 09:05:05;;;;;;;67.53;18.42;;;;;;;7.32;100.00;100124.72;5003798;28;20076;-85
2023/03/26 09:07:35;;;;;;;69.38;19.05;;;;;;;7.32;100.00;100124.72;5006693;28;20468;-84
2023/03/26 09:10:32;;;;;;;54.83;17.75;;;;;;;7.36;100.00;100120.13;5010147;28;20103;-79
2023/03/26 09:13:20;;;;;;;55.40;18.10;;;;;;;7.49;100.00;100121.19;5010497;28;20090;-84
2023/03/26 09:16:08;;;;;;;63.88;19.67;;;;;;;7.56;100.00;100121.69;5023805;28;20036;-85
2023/03/26 09:18:48;;;;;;;64.10;21.30;;;;;;;7.54;100.00;100126.25;5004091;28;20109;-85
2023/03/26 09:21:25;;;;;;;63.80;20.42;;;;;;;7.48;100.00;100121.28;5009715;28;20029;-83
2023/03/26 09:23:57;;;;;;;61.53;22.98;;;;;;;7.59;100.00;100129.50;5007650;28;20036;-84
2023/03/26 09:26:59;;;;;;;67.15;24.10;;;;;;;7.66;100.00;100122.94;5009342;28;20034;-81
2023/03/26 09:29:38;;;;;;;53.53;20.40;;;;;;;7.67;100.00;100119.31;4992983;28;20046;-83
2023/03/26 09:32:22;;;;;;;54.20;18.70;;;;;;;7.62;100.00;100120.50;4998547;28;20057;-80
2023/03/26 09:35:10;;;;;;;45.42;19.48;;;;;;;7.64;100.00;100119.50;5007115;28;20167;-86
2023/03/26 09:37:42;;;;;;;50.58;16.48;;;;;;;7.64;100.00;100127.47;5013239;28;20030;-85
2023/03/26 09:40:17;;;;;;;47.83;16.77;;;;;;;7.63;100.00;100130.22;5030214;28;20084;-83
2023/03/26 09:43:05;;;;;;;38.25;14.45;;;;;;;7.62;100.00;100126.66;5013637;28;20402;-86
2023/03/26 09:45:51;;;;;;;43.22;15.98;;;;;;;7.70;100.00;100126.28;5005366;28;20050;-85
2023/03/26 09:48:33;;;;;;;41.95;14.27;;;;;;;7.67;100.00;100135.25;5014899;28;20042;-85
2023/03/26 09:51:19;;;;;;;37.53;14.77;;;;;;;7.69;100.00;100133.38;4997781;28;20112;-83
2023/03/26 09:53:54;;;;;;;39.95;13.68;;;;;;;7.76;100.00;100134.75;5016536;28;20475;-87
2023/03/26 09:56:48;;;;;;;40.13;13.13;;;;;;;7.73;100.00;100136.72;5013396;28;20064;-82
2023/03/26 09:59:21;;;;;;;35.13;13.38;;;;;;;7.79;100.00;100143.50;5016299;28;20046;-87
2023/03/26 10:02:12;;;;;;;44.85;13.85;;;;;;;7.78;100.00;100147.97;5014527;28;20145;-86
2023/03/26 10:04:55;;;;;;;41.50;15.32;;;;;;;7.80;100.00;100147.88;5034225;28;20030;-87
2023/03/26 10:07:29;;;;;;;43.17;13.85;;;;;;;7.57;100.00;100150.00;5028196;28;20076;-87
2023/03/26 10:10:13;;;;;;;37.78;11.48;;;;;;;7.50;100.00;100149.44;5012085;28;20038;-85
2023/03/26 10:12:48;;;;;;;33.75;11.65;;;;;;;7.62;100.00;100152.38;5030886;28;20037;-86
2023/03/26 10:15:21;;;;;;;33.42;12.77;;;;;;;7.57;100.00;100157.97;5036543;28;20110;-85
2023/03/26 10:18:06;;;;;;;41.70;14.20;;;;;;;7.62;100.00;100152.38;5053987;28;20083;-84
2023/03/26 10:21:10;;;;;;;39.03;12.07;;;;;;;7.72;100.00;100150.97;5020480;28;20052;-84
2023/03/26 10:24:07;;;;;;;51.90;13.68;;;;;;;7.65;100.00;100153.09;4980802;28;20502;-84
2023/03/26 10:26:40;;;;;;;43.10;13.63;;;;;;;7.69;100.00;100159.09;4996218;28;20133;-84
2023/03/26 10:29:08;;;;;;;44.35;11.07;;;;;;;7.60;100.00;100160.44;5014233;28;20061;-82
2023/03/26 10:31:43;;;;;;;38.40;10.98;;;;;;;7.65;100.00;100163.72;4982444;28;20061;-87
2023/03/26 10:34:44;;;;;;;34.45;8.57;;;;;;;7.71;100.00;100163.38;5015569;28;20095;-86
2023/03/26 10:37:33;;;;;;;41.42;10.75;;;;;;;7.67;100.00;100167.13;5015342;28;20537;-85
2023/03/26 10:40:13;;;;;;;36.28;6.93;;;;;;;7.61;100.00;100174.59;5033008;28;20144;-85
2023/03/26 10:42:39;;;;;;;35.13;8.07;;;;;;;7.64;100.00;100166.44;5033929;28;20025;-85
2023/03/26 10:45:29;;;;;;;40.47;7.75;;;;;;;7.71;100.00;100168.69;5015876;28;20121;-85
2023/03/26 10:48:23;;;;;;;34.45;6.72;;;;;;;7.74;100.00;100180.97;5020792;28;20500;-83
2023/03/26 10:51:16;;;;;;;32.25;6.57;;;;;;;7.73;100.00;100177.44;5015694;28;20069;-86
2023/03/26 10:54:35;;;;;;;31.17;6.40;;;;;;;7.64;100.00;100177.06;5033199;28;20116;-82
2023/03/26 10:57:09;;;;;;;33.72;6.57;;;;;;;7.62;100.00;100176.28;4961104;28;20030;-83
2023/03/26 10:59:38;;;;;;;37.30;7.47;;;;;;;7.59;100.00;100182.63;4998299;28;20063;-84
2023/03/26 11:02:25;;;;;;;31.42;7.07;;;;;;;7.60;100.00;100187.00;4998437;28;20044;-85
2023/03/26 11:05:02;;;;;;;32.83;7.05;;;;;;;7.70;100.00;100185.56;5032512;28;20049;-84
2023/03/26 11:07:50;;;;;;;30.05;6.22;;;;;;;7.78;100.00;100198.44;5030930;28;20115;-85
2023/03/26 11:10:26;;;;;;;34.38;8.25;;;;;;;7.81;100.00;100195.63;4995400;28;20029;-84
2023/03/26 11:12:56;;;;;;;33.20;6.78;;;;;;;7.71;100.00;100195.25;5012654;28;20117;-84
2023/03/26 11:15:48;;;;;;;39.88;6.80;;;;;;;7.71;100.00;100203.22;4995166;28;20046;-83
2023/03/26 11:18:19;;;;;;;34.85;6.65;;;;;;;7.63;100.00;100204.59;4994757;28;20038;-84
2023/03/26 11:21:04;;;;;;;30.48;7.18;;;;;;;7.48;100.00;100206.25;4995297;28;20034;-82
2023/03/26 11:23:49;;;;;;;31.52;6.63;;;;;;;7.42;100.00;100209.22;4994698;28;20587;-82
2023/03/26 11:26:45;;;;;;;27.48;8.90;;;;;;;7.53;100.00;100209.50;4979020;28;20037;-83
2023/03/26 11:29:26;;;;;;;38.58;8.10;;;;;;;7.47;100.00;100209.84;4994475;28;20064;-84
2023/03/26 11:31:59;;;;;;;37.67;7.40;;;;;;;7.55;100.00;100215.63;5020509;28;20036;-84
2023/03/26 11:34:41;;;;;;;40.08;8.55;;;;;;;7.57;100.00;100219.06;5015788;28;20032;-85
2023/03/26 11:37:25;;;;;;;35.08;8.70;;;;;;;7.56;100.00;100222.63;5051854;28;20103;-85
2023/03/26 11:39:55;;;;;;;37.85;8.13;;;;;;;7.50;100.00;100222.97;5034305;28;20037;-83
2023/03/26 11:42:24;;;;;;;35.03;7.10;;;;;;;7.56;100.00;100227.94;5017682;28;20044;-84
2023/03/26 11:44:55;;;;;;;33.92;7.03;;;;;;;7.60;100.00;100228.66;5017488;28;20037;-84
2023/03/26 11:47:32;;;;;;;;;;;;;;;7.70;100.00;100228.09;4998531;28;20482;-82
2023/03/26 11:50:00;;;;;;;34.72;7.43;;;;;;;7.82;100.00;100228.38;4997901;28;19959;-85
2023/03/26 11:52:27;;;;;;;28.77;7.35;;;;;;;7.85;100.00;100233.53;5030385;28;20486;-82
2023/03/26 11:54:57;;;;;;;31.40;7.70;;;;;;;7.85;100.00;100234.38;5007117;28;20069;-84
2023/03/26 11:57:29;;;;;;;34.03;7.18;;;;;;;7.90;100.00;100242.09;5011749;28;20042;-84
2023/03/26 11:59:55;;;;;;;22.75;4.93;;;;;;;7.97;100.00;100233.69;4993671;28;20041;-82
2023/03/26 12:02:27;;;;;;;29.33;5.95;;;;;;;8.07;100.00;100234.06;5011899;28;20030;-84